createdAt,value
2023-04-04T00:01:44.980Z,11.80
2023-04-04T00:04:48.312Z,12.20
2023-04-04T00:07:51.504Z,13.40
2023-04-04T00:11:01.280Z,10.80
2023-04-04T00:14:05.605Z,10.30
2023-04-04T00:17:08.654Z,13.60
2023-04-04T00:20:12.022Z,12.20
2023-04-04T00:23:15.126Z,10.60
2023-04-04T00:26:18.451Z,11.60
2023-04-04T00:29:21.600Z,10.90
2023-04-04T00:32:24.788Z,9.20
2023-04-04T00:35:28.065Z,9.50
2023-04-04T00:38:31.159Z,8.70
2023-04-04T00:41:35.072Z,8.00
2023-04-04T00:44:38.295Z,10.20
2023-04-04T00:47:43.709Z,8.00
2023-04-04T00:50:47.341Z,10.60
2023-04-04T00:53:51.225Z,12.80
2023-04-04T00:56:55.504Z,10.10
2023-04-04T01:00:02.089Z,9.20
2023-04-04T01:03:07.752Z,12.30
2023-04-04T01:06:11.223Z,13.00
2023-04-04T01:09:14.511Z,11.00
2023-04-04T01:12:18.758Z,10.60
2023-04-04T01:15:21.933Z,8.70
2023-04-04T01:18:27.271Z,8.80
2023-04-04T01:21:30.588Z,12.60
2023-04-04T01:24:34.909Z,10.90
2023-04-04T01:27:40.719Z,10.50
2023-04-04T01:30:49.916Z,12.10
2023-04-04T01:34:09.535Z,9.90
2023-04-04T01:37:30.875Z,9.70
2023-04-04T01:40:37.573Z,10.10
2023-04-04T01:43:46.178Z,8.70
2023-04-04T01:46:54.427Z,11.70
2023-04-04T01:49:57.799Z,8.20
2023-04-04T01:53:00.984Z,9.30
2023-04-04T01:56:04.908Z,9.70
2023-04-04T01:59:10.246Z,9.70
2023-04-04T02:02:13.460Z,10.40
2023-04-04T02:05:16.689Z,8.80
2023-04-04T02:08:20.253Z,9.40
2023-04-04T02:11:25.962Z,9.10
2023-04-04T02:14:29.168Z,6.90
2023-04-04T02:17:32.671Z,8.50
2023-04-04T02:20:36.032Z,7.00
2023-04-04T02:23:39.232Z,8.40
2023-04-04T02:26:42.543Z,10.20
2023-04-04T02:29:45.678Z,9.40
2023-04-04T02:32:50.347Z,11.10
2023-04-04T02:35:59.089Z,9.10
2023-04-04T02:39:02.511Z,8.70
2023-04-04T02:42:06.791Z,8.20
2023-04-04T02:45:11.529Z,7.40
2023-04-04T02:48:14.913Z,8.20
2023-04-04T02:51:21.075Z,9.70
2023-04-04T02:54:24.177Z,9.00
2023-04-04T02:57:27.675Z,10.20
2023-04-04T03:00:30.828Z,11.30
2023-04-04T03:03:34.089Z,8.10
2023-04-04T03:06:37.753Z,6.80
2023-04-04T03:09:45.129Z,10.00
2023-04-04T03:12:48.548Z,9.20
2023-04-04T03:15:59.088Z,10.30
2023-04-04T03:19:03.499Z,11.30
2023-04-04T03:22:07.102Z,10.00
2023-04-04T03:25:10.750Z,8.20
2023-04-04T03:28:13.829Z,12.30
2023-04-04T03:31:17.768Z,19.40
2023-04-04T03:34:20.956Z,14.20
2023-04-04T03:37:26.451Z,15.70
2023-04-04T03:40:29.895Z,19.20
2023-04-04T03:43:33.386Z,20.10
2023-04-04T03:46:36.675Z,16.70
2023-04-04T03:49:39.936Z,13.80
2023-04-04T03:52:43.153Z,11.90
2023-04-04T03:55:46.228Z,13.20
2023-04-04T03:58:50.096Z,10.70
2023-04-04T04:01:55.849Z,11.10
2023-04-04T04:04:59.516Z,12.20
2023-04-04T04:08:02.754Z,12.00
2023-04-04T04:11:09.066Z,9.80
2023-04-04T04:14:13.177Z,12.70
2023-04-04T04:17:17.019Z,9.70
2023-04-04T04:20:21.036Z,9.90
2023-04-04T04:23:26.341Z,10.90
2023-04-04T04:26:29.628Z,11.60
2023-04-04T04:29:33.046Z,11.00
2023-04-04T04:32:36.216Z,14.10
2023-04-04T04:35:42.660Z,19.60
2023-04-04T04:38:46.023Z,22.10
2023-04-04T04:41:51.087Z,18.70
2023-04-04T04:44:54.597Z,19.40
2023-04-04T04:47:58.628Z,18.20
2023-04-04T04:51:02.377Z,18.60
2023-04-04T04:54:14.946Z,19.70
2023-04-04T04:57:19.738Z,20.00
2023-04-04T05:00:23.478Z,16.00
2023-04-04T05:03:27.898Z,13.80
2023-04-04T05:06:31.103Z,14.40
2023-04-04T05:09:34.464Z,12.40
2023-04-04T05:12:43.653Z,17.60
2023-04-04T05:15:49.002Z,12.20
2023-04-04T05:18:52.697Z,15.20
2023-04-04T05:21:55.839Z,13.40
2023-04-04T05:25:07.380Z,13.70
2023-04-04T05:28:11.781Z,11.30
2023-04-04T05:31:15.736Z,11.40
2023-04-04T05:34:19.231Z,13.90
2023-04-04T05:37:23.591Z,14.80
2023-04-04T05:40:27.939Z,12.10
2023-04-04T05:43:39.411Z,11.20
2023-04-04T05:46:45.355Z,12.20
2023-04-04T05:49:49.143Z,6.90
2023-04-04T05:52:55.510Z,5.70
2023-04-04T05:55:58.900Z,6.30
2023-04-04T05:59:05.990Z,6.40
2023-04-04T06:02:12.302Z,5.60
2023-04-04T06:05:19.176Z,6.90
2023-04-04T06:08:22.309Z,5.50
2023-04-04T06:11:26.327Z,8.10
2023-04-04T06:17:42.577Z,6.30
2023-04-04T06:20:46.380Z,4.90
2023-04-04T06:23:51.963Z,4.30
2023-04-04T06:26:55.049Z,5.80
2023-04-04T06:30:00.790Z,5.90
2023-04-04T06:33:04.919Z,6.50
2023-04-04T06:36:08.705Z,6.20
2023-04-04T06:39:11.846Z,4.50
2023-04-04T06:42:15.033Z,4.80
2023-04-04T06:45:27.696Z,5.10
2023-04-04T06:48:30.724Z,5.60
2023-04-04T06:51:34.576Z,5.50
2023-04-04T06:54:37.911Z,7.50
2023-04-04T06:57:41.392Z,4.90
2023-04-04T07:00:44.597Z,5.90
2023-04-04T07:03:47.813Z,7.40
2023-04-04T07:06:50.940Z,5.80
2023-04-04T07:09:54.194Z,5.60
2023-04-04T07:12:57.552Z,6.60
2023-04-04T07:16:02.163Z,7.20
2023-04-04T07:19:05.578Z,6.00
2023-04-04T07:22:09.801Z,8.80
2023-04-04T07:25:14.696Z,5.50
2023-04-04T07:28:18.237Z,8.10
2023-04-04T07:31:22.190Z,7.40
2023-04-04T07:34:26.675Z,8.60
2023-04-04T07:37:29.979Z,7.80
2023-04-04T07:40:33.232Z,8.10
2023-04-04T07:43:36.252Z,7.30
2023-04-04T07:46:39.464Z,10.10
2023-04-04T07:49:42.557Z,5.10
2023-04-04T07:52:52.355Z,7.70
2023-04-04T07:55:55.608Z,6.70
2023-04-04T07:58:58.786Z,8.50
2023-04-04T08:02:01.917Z,6.90
2023-04-04T08:05:05.896Z,9.50
2023-04-04T08:08:09.104Z,5.60
2023-04-04T08:11:12.388Z,3.30
2023-04-04T08:14:15.570Z,3.10
2023-04-04T08:17:19.197Z,8.00
2023-04-04T08:20:22.364Z,4.30
2023-04-04T08:23:25.618Z,7.90
2023-04-04T08:26:29.265Z,6.30
2023-04-04T08:29:33.127Z,5.30
2023-04-04T08:32:36.633Z,6.60
2023-04-04T08:35:39.940Z,6.60
2023-04-04T08:38:42.987Z,5.70
2023-04-04T08:41:46.599Z,4.90
2023-04-04T08:44:53.463Z,3.50
2023-04-04T08:47:59.901Z,4.30
2023-04-04T08:51:04.743Z,8.20
2023-04-04T08:54:09.440Z,3.60
2023-04-04T08:57:13.647Z,6.60
2023-04-04T09:00:20.912Z,4.60
2023-04-04T09:03:29.130Z,10.00
2023-04-04T09:06:33.577Z,13.10
2023-04-04T09:09:38.890Z,5.70
2023-04-04T09:12:47.434Z,15.40
2023-04-04T09:15:54.267Z,12.70
2023-04-04T09:18:57.532Z,28.50
2023-04-04T09:22:02.098Z,21.10
2023-04-04T09:25:08.730Z,7.00
2023-04-04T09:28:16.269Z,8.60
2023-04-04T09:31:20.219Z,6.70
2023-04-04T09:34:26.282Z,9.30
2023-04-04T09:37:29.635Z,7.20
2023-04-04T09:40:39.066Z,3.60
2023-04-04T09:43:46.318Z,4.60
2023-04-04T09:46:52.247Z,11.80
2023-04-04T09:49:59.740Z,5.60
2023-04-04T09:53:02.961Z,4.70
2023-04-04T09:56:06.997Z,7.10
2023-04-04T09:59:13.757Z,4.50
2023-04-04T10:02:19.209Z,9.70
2023-04-04T10:05:23.528Z,5.90
2023-04-04T10:08:30.508Z,4.20
2023-04-04T10:11:36.207Z,6.60
2023-04-04T10:14:40.095Z,7.60
2023-04-04T10:17:45.817Z,12.90
2023-04-04T10:20:50.646Z,8.40
2023-04-04T10:23:54.550Z,5.70
2023-04-04T10:26:58.075Z,7.70
2023-04-04T10:30:01.629Z,8.00
2023-04-04T10:33:15.523Z,7.10
2023-04-04T10:36:24.646Z,7.00
2023-04-04T10:39:36.407Z,10.70
2023-04-04T10:42:43.329Z,8.90
2023-04-04T10:45:47.953Z,4.80
2023-04-04T10:48:52.244Z,6.30
2023-04-04T10:51:57.413Z,7.00
2023-04-04T10:55:06.187Z,5.80
2023-04-04T10:58:10.997Z,7.30
2023-04-04T11:01:16.433Z,3.60
2023-04-04T11:04:23.684Z,4.90
2023-04-04T11:07:34.240Z,9.40
2023-04-04T11:10:38.226Z,7.80
2023-04-04T11:13:59.889Z,4.60
2023-04-04T11:17:06.766Z,6.70
2023-04-04T11:20:11.696Z,6.70
2023-04-04T11:23:22.893Z,6.10
2023-04-04T11:26:26.414Z,10.00
2023-04-04T11:29:51.648Z,7.20
2023-04-04T11:33:06.935Z,5.40
2023-04-04T11:36:35.930Z,11.50
2023-04-04T11:39:50.776Z,5.80
2023-04-04T11:42:56.172Z,5.60
2023-04-04T11:46:08.999Z,12.20
2023-04-04T11:49:12.281Z,7.30
2023-04-04T11:52:20.371Z,7.40
2023-04-04T11:55:23.847Z,8.30
2023-04-04T11:58:27.539Z,5.60
2023-04-04T12:01:31.540Z,5.00
2023-04-04T12:04:37.312Z,12.00
2023-04-04T12:07:41.648Z,7.70
2023-04-04T12:10:45.139Z,5.10
2023-04-04T12:13:51.248Z,4.20
2023-04-04T12:16:56.799Z,9.50
2023-04-04T12:20:00.304Z,6.90
2023-04-04T12:23:03.777Z,8.40
2023-04-04T12:26:09.498Z,8.00
2023-04-04T12:29:15.378Z,7.00
2023-04-04T12:32:18.811Z,5.80
2023-04-04T12:35:22.739Z,18.00
2023-04-04T12:38:26.899Z,6.80
2023-04-04T12:41:30.685Z,7.90
2023-04-04T12:44:40.296Z,8.90
2023-04-04T12:47:54.584Z,7.30
2023-04-04T12:50:59.728Z,4.50
2023-04-04T12:54:05.306Z,5.70
2023-04-04T12:57:08.633Z,5.90
2023-04-04T13:00:14.025Z,13.50
2023-04-04T13:03:17.764Z,13.70
2023-04-04T13:06:21.749Z,7.90
2023-04-04T13:09:25.395Z,6.60
2023-04-04T13:12:58.902Z,7.90
2023-04-04T13:16:08.150Z,11.10
2023-04-04T13:19:11.725Z,14.50
2023-04-04T13:22:15.603Z,17.40
2023-04-04T13:25:18.825Z,7.50
2023-04-04T13:28:22.240Z,14.50
2023-04-04T13:31:25.579Z,9.20
2023-04-04T13:34:28.866Z,6.10
2023-04-04T13:37:32.177Z,10.60
2023-04-04T13:40:35.317Z,12.00
2023-04-04T13:43:38.513Z,7.00
2023-04-04T13:46:42.483Z,11.80
2023-04-04T13:49:45.507Z,12.30
2023-04-04T13:52:48.615Z,17.00
2023-04-04T13:56:17.103Z,13.20
2023-04-04T13:59:15.326Z,11.80
2023-04-04T14:02:18.486Z,9.50
2023-04-04T14:05:22.446Z,8.00
2023-04-04T14:08:25.696Z,6.20
2023-04-04T14:11:31.401Z,5.40
2023-04-04T14:14:35.738Z,5.40
2023-04-04T14:17:41.038Z,7.90
2023-04-04T14:20:44.395Z,8.90
2023-04-04T14:23:47.576Z,11.70
2023-04-04T14:26:50.960Z,6.20
2023-04-04T14:29:54.060Z,5.60
2023-04-04T14:32:59.106Z,6.90
2023-04-04T14:36:02.234Z,15.30
2023-04-04T14:39:05.471Z,8.70
2023-04-04T14:42:09.086Z,10.40
2023-04-04T14:45:12.569Z,15.30
2023-04-04T14:48:15.583Z,21.10
2023-04-04T14:51:19.940Z,18.20
2023-04-04T14:54:23.100Z,12.80
2023-04-04T14:57:26.423Z,9.40
2023-04-04T15:00:30.467Z,8.80
2023-04-04T15:03:35.044Z,9.20
2023-04-04T15:06:38.168Z,17.30
2023-04-04T15:09:41.351Z,7.30
2023-04-04T15:12:44.509Z,6.20
2023-04-04T15:15:47.580Z,8.30
2023-04-04T15:18:51.184Z,9.60
2023-04-04T15:21:57.077Z,14.90
2023-04-04T15:25:00.127Z,7.00
2023-04-04T15:28:03.195Z,14.60
2023-04-04T15:31:06.235Z,16.10
2023-04-04T15:34:09.884Z,14.40
2023-04-04T15:37:12.852Z,14.40
2023-04-04T15:40:16.805Z,14.80
2023-04-04T15:43:19.781Z,17.70
2023-04-04T15:46:23.054Z,16.50
2023-04-04T15:49:26.448Z,21.40
2023-04-04T15:52:29.951Z,14.10
2023-04-04T15:55:33.211Z,8.30
2023-04-04T15:58:36.255Z,15.30
2023-04-04T16:01:40.849Z,11.50
2023-04-04T16:04:43.922Z,7.60
2023-04-04T16:07:47.086Z,10.40
2023-04-04T16:10:51.107Z,11.90
2023-04-04T16:13:54.502Z,13.90
2023-04-04T16:16:59.048Z,10.00
2023-04-04T16:20:06.356Z,11.50
2023-04-04T16:23:15.111Z,7.90
2023-04-04T16:26:18.148Z,23.60
2023-04-04T16:29:23.564Z,26.40
2023-04-04T16:32:26.838Z,17.30
2023-04-04T16:35:30.240Z,14.50
2023-04-04T16:38:33.529Z,15.30
2023-04-04T16:41:43.401Z,20.40
2023-04-04T16:44:49.786Z,15.20
2023-04-04T16:47:53.671Z,9.40
2023-04-04T16:50:56.920Z,14.20
2023-04-04T16:53:59.894Z,12.30
2023-04-04T16:57:04.140Z,18.90
2023-04-04T17:00:10.727Z,19.80
2023-04-04T17:03:13.979Z,9.80
2023-04-04T17:06:17.399Z,15.00
2023-04-04T17:09:20.461Z,20.00
2023-04-04T17:12:23.460Z,33.00
2023-04-04T17:15:26.463Z,31.70
2023-04-04T17:18:29.557Z,15.10
2023-04-04T17:21:32.775Z,8.60
2023-04-04T17:24:36.123Z,9.90
2023-04-04T17:27:39.748Z,15.30
2023-04-04T17:30:43.304Z,11.30
2023-04-04T17:33:46.534Z,10.80
2023-04-04T17:36:51.348Z,8.30
2023-04-04T17:39:54.715Z,7.60
2023-04-04T17:42:57.694Z,11.80
2023-04-04T17:46:06.492Z,11.10
2023-04-04T17:49:09.870Z,11.50
2023-04-04T17:52:18.866Z,13.20
2023-04-04T17:55:22.997Z,11.00
2023-04-04T17:58:26.181Z,10.60
2023-04-04T18:01:29.608Z,11.60
2023-04-04T18:04:32.836Z,14.20
2023-04-04T18:07:35.885Z,12.10
2023-04-04T18:10:39.128Z,13.20
2023-04-04T18:13:42.390Z,12.10
2023-04-04T18:16:45.732Z,11.90
2023-04-04T18:19:48.787Z,14.20
2023-04-04T18:22:53.780Z,13.60
2023-04-04T18:25:56.808Z,13.00
2023-04-04T18:28:59.875Z,17.20
2023-04-04T18:32:03.784Z,14.80
2023-04-04T18:35:07.337Z,11.90
2023-04-04T18:38:11.223Z,12.50
2023-04-04T18:41:17.391Z,14.00
2023-04-04T18:44:21.718Z,11.90
2023-04-04T18:47:25.873Z,13.60
2023-04-04T18:50:28.920Z,15.60
2023-04-04T18:53:31.944Z,19.40
2023-04-04T18:56:37.115Z,28.40
2023-04-04T18:59:41.473Z,30.30
2023-04-04T19:02:45.085Z,42.90
2023-04-04T19:05:49.321Z,48.80
2023-04-04T19:08:56.691Z,61.10
2023-04-04T19:12:00.256Z,80.90
2023-04-04T19:15:03.800Z,82.50
2023-04-04T19:18:06.835Z,97.50
2023-04-04T19:21:11.009Z,85.00
2023-04-04T19:24:15.025Z,119.10
2023-04-04T19:27:18.075Z,112.70
2023-04-04T19:30:52.616Z,124.50
2023-04-04T19:33:56.718Z,131.20
2023-04-04T19:36:59.773Z,168.00
2023-04-04T19:40:14.777Z,210.00
2023-04-04T19:43:22.594Z,243.10
2023-04-04T19:46:29.114Z,237.60
2023-04-04T19:49:33.558Z,226.70
2023-04-04T19:52:36.721Z,233.30
2023-04-04T19:55:40.495Z,235.50
2023-04-04T19:58:44.831Z,256.40
2023-04-04T20:04:54.291Z,269.00
2023-04-04T20:07:57.402Z,275.70
2023-04-04T20:11:00.680Z,257.50
2023-04-04T20:14:09.240Z,238.10
2023-04-04T20:17:12.660Z,198.50
2023-04-04T20:20:50.445Z,171.80
2023-04-04T20:23:56.219Z,136.10
2023-04-04T20:26:59.780Z,128.40
2023-04-04T20:30:02.895Z,128.10
2023-04-04T20:33:32.298Z,130.60
2023-04-04T20:36:41.901Z,105.80
2023-04-04T20:40:14.717Z,109.00
2023-04-04T20:43:17.720Z,104.90
2023-04-04T20:46:22.465Z,107.70
2023-04-04T20:49:25.565Z,117.90
2023-04-04T20:52:28.550Z,113.90
2023-04-04T20:55:34.189Z,122.70
2023-04-04T20:58:37.209Z,114.30
2023-04-04T21:01:40.304Z,109.80
2023-04-04T21:04:45.716Z,112.90
2023-04-04T21:07:48.792Z,115.00
2023-04-04T21:10:53.938Z,117.00
2023-04-04T21:13:57.212Z,118.50
2023-04-04T21:17:00.270Z,104.00
2023-04-04T21:20:16.910Z,108.70
2023-04-04T21:23:26.189Z,102.50
2023-04-04T21:26:35.361Z,103.60
2023-04-04T21:29:38.389Z,102.50
2023-04-04T21:32:41.361Z,109.50
2023-04-04T21:35:47.682Z,119.10
2023-04-04T21:38:52.273Z,135.90
2023-04-04T21:42:05.966Z,142.00
2023-04-04T21:45:11.365Z,150.70
2023-04-04T21:48:14.424Z,134.10
2023-04-04T21:51:17.651Z,145.20
2023-04-04T21:54:20.673Z,144.40
2023-04-04T21:57:24.020Z,158.80
2023-04-04T22:00:27.707Z,138.90
2023-04-04T22:03:30.719Z,133.90
2023-04-04T22:06:33.918Z,142.80
2023-04-04T22:09:40.471Z,144.90
2023-04-04T22:12:45.872Z,164.00
2023-04-04T22:15:49.882Z,159.30
2023-04-04T22:18:52.870Z,153.10
2023-04-04T22:21:58.678Z,156.80
2023-04-04T22:25:04.601Z,147.50
2023-04-04T22:28:08.625Z,143.60
2023-04-04T22:31:11.968Z,133.20
2023-04-04T22:34:15.542Z,139.30
2023-04-04T22:37:20.272Z,127.30
2023-04-04T22:40:23.942Z,119.50
2023-04-04T22:43:26.914Z,135.60
2023-04-04T22:46:31.415Z,117.70
2023-04-04T22:49:37.806Z,125.60
2023-04-04T22:52:43.632Z,122.00
2023-04-04T22:55:46.594Z,127.00
2023-04-04T22:58:49.685Z,118.30
2023-04-04T23:01:53.001Z,115.70
2023-04-04T23:04:58.504Z,116.30
2023-04-04T23:08:03.467Z,117.00
2023-04-04T23:11:06.481Z,111.00
2023-04-04T23:14:09.850Z,112.60
2023-04-04T23:17:13.346Z,113.10
2023-04-04T23:20:18.233Z,111.40
2023-04-04T23:23:21.522Z,117.60
2023-04-04T23:26:24.577Z,114.80
2023-04-04T23:29:27.962Z,116.10
2023-04-04T23:32:32.138Z,129.30
2023-04-04T23:35:35.206Z,125.00
2023-04-04T23:38:38.180Z,108.40
2023-04-04T23:41:41.319Z,104.40
2023-04-04T23:44:44.839Z,105.70
2023-04-04T23:47:47.881Z,122.70
2023-04-04T23:50:54.439Z,123.30
2023-04-04T23:53:59.137Z,121.50
2023-04-04T23:57:02.649Z,109.20
